createdAt,value
2019-06-27T00:00:26.875Z,29.79
2019-06-27T00:01:03.058Z,29.87
2019-06-27T00:01:39.350Z,29.87
2019-06-27T00:02:15.541Z,29.88
2019-06-27T00:02:51.426Z,29.90
2019-06-27T00:03:27.518Z,29.90
2019-06-27T00:04:03.816Z,29.91
2019-06-27T00:04:39.809Z,29.92
2019-06-27T00:05:15.879Z,29.93
2019-06-27T00:05:52.035Z,29.94
2019-06-27T00:06:28.091Z,29.95
2019-06-27T00:07:04.099Z,29.96
2019-06-27T00:07:40.151Z,29.96
2019-06-27T00:08:16.264Z,29.96
2019-06-27T00:08:52.283Z,29.96
2019-06-27T00:09:28.370Z,29.97
2019-06-27T00:10:04.926Z,29.98
2019-06-27T00:10:40.797Z,29.99
2019-06-27T00:11:16.623Z,29.95
2019-06-27T00:11:52.999Z,29.96
2019-06-27T00:12:29.049Z,29.96
2019-06-27T00:13:05.082Z,29.97
2019-06-27T00:13:41.135Z,29.97
2019-06-27T00:14:17.392Z,29.99
2019-06-27T00:14:53.408Z,29.99
2019-06-27T00:15:29.272Z,30.00
2019-06-27T00:16:05.367Z,29.98
2019-06-27T00:16:41.354Z,30.02
2019-06-27T00:17:17.717Z,30.02
2019-06-27T00:17:54.065Z,30.02
2019-06-27T00:18:29.873Z,30.04
2019-06-27T00:19:06.138Z,30.06
2019-06-27T00:19:42.375Z,30.08
2019-06-27T00:20:18.956Z,30.03
2019-06-27T00:20:58.699Z,30.06
2019-06-27T00:21:37.525Z,30.08
2019-06-27T00:22:14.127Z,30.05
2019-06-27T00:22:50.337Z,30.10
2019-06-27T00:23:29.481Z,30.12
2019-06-27T00:24:05.881Z,30.13
2019-06-27T00:24:41.869Z,30.13
2019-06-27T00:25:18.298Z,30.13
2019-06-27T00:25:54.769Z,30.16
2019-06-27T00:26:30.926Z,30.16
2019-06-27T00:27:06.927Z,30.20
2019-06-27T00:27:42.871Z,30.20
2019-06-27T00:28:19.147Z,30.21
2019-06-27T00:28:55.125Z,30.21
2019-06-27T00:29:31.191Z,30.21
2019-06-27T00:30:07.463Z,30.20
2019-06-27T00:30:43.777Z,30.21
2019-06-27T00:31:19.965Z,30.22
2019-06-27T00:31:56.205Z,30.23
2019-06-27T00:32:32.357Z,30.25
2019-06-27T00:33:08.288Z,30.26
2019-06-27T00:33:44.473Z,30.24
2019-06-27T00:34:20.594Z,30.25
2019-06-27T00:34:56.597Z,30.27
2019-06-27T00:35:32.436Z,30.28
2019-06-27T00:36:08.546Z,30.28
2019-06-27T00:36:44.564Z,30.31
2019-06-27T00:37:21.073Z,30.32
2019-06-27T00:37:57.110Z,30.31
2019-06-27T00:38:33.424Z,30.32
2019-06-27T00:39:09.295Z,30.33
2019-06-27T00:39:45.192Z,30.33
2019-06-27T00:40:21.128Z,30.33
2019-06-27T00:40:57.220Z,30.35
2019-06-27T00:41:33.345Z,30.36
2019-06-27T00:42:09.149Z,30.36
2019-06-27T00:42:45.217Z,30.38
2019-06-27T00:43:21.617Z,30.40
2019-06-27T00:43:58.092Z,30.42
2019-06-27T00:44:34.304Z,30.44
2019-06-27T00:45:10.596Z,30.45
2019-06-27T00:45:46.757Z,30.44
2019-06-27T00:46:23.227Z,30.45
2019-06-27T00:46:59.296Z,30.48
2019-06-27T00:47:35.577Z,30.50
2019-06-27T00:48:11.836Z,30.50
2019-06-27T00:48:47.936Z,30.50
2019-06-27T00:49:23.866Z,30.53
2019-06-27T00:50:00.098Z,30.55
2019-06-27T00:50:36.387Z,30.58
2019-06-27T00:51:12.860Z,30.60
2019-06-27T00:51:48.826Z,30.62
2019-06-27T00:52:24.891Z,30.62
2019-06-27T00:53:00.969Z,30.66
2019-06-27T00:53:37.026Z,30.69
2019-06-27T00:54:13.122Z,30.72
2019-06-27T00:54:49.218Z,30.74
2019-06-27T00:55:25.384Z,30.77
2019-06-27T00:56:01.507Z,30.79
2019-06-27T00:56:37.654Z,30.85
2019-06-27T00:57:14.923Z,30.92
2019-06-27T00:57:50.993Z,30.96
2019-06-27T00:58:27.309Z,30.99
2019-06-27T00:59:03.470Z,31.04
2019-06-27T00:59:39.416Z,31.07
2019-06-27T01:00:15.655Z,31.08
2019-06-27T01:00:51.721Z,31.11
2019-06-27T01:01:27.813Z,31.14
2019-06-27T01:02:04.100Z,31.16
2019-06-27T01:02:40.253Z,31.19
2019-06-27T01:03:16.433Z,31.21
2019-06-27T01:03:52.534Z,31.23
2019-06-27T01:04:28.575Z,31.25
2019-06-27T01:05:04.506Z,31.23
2019-06-27T01:05:40.340Z,31.25
2019-06-27T01:06:17.863Z,31.25
2019-06-27T01:06:54.019Z,31.23
2019-06-27T01:07:30.234Z,31.23
2019-06-27T01:08:06.140Z,31.27
2019-06-27T01:08:42.031Z,31.26
2019-06-27T01:09:18.359Z,31.30
2019-06-27T01:09:54.148Z,31.32
2019-06-27T01:10:30.134Z,31.38
2019-06-27T01:11:06.152Z,31.44
2019-06-27T01:11:42.148Z,31.52
2019-06-27T01:12:18.131Z,31.57
2019-06-27T01:12:54.469Z,31.62
2019-06-27T01:13:30.603Z,31.65
2019-06-27T01:14:06.844Z,31.73
2019-06-27T01:14:42.868Z,31.84
2019-06-27T01:15:18.939Z,31.92
2019-06-27T01:15:55.198Z,31.99
2019-06-27T01:16:31.249Z,32.07
2019-06-27T01:17:07.186Z,32.11
2019-06-27T01:17:43.066Z,32.22
2019-06-27T01:18:19.251Z,32.28
2019-06-27T01:18:55.130Z,32.32
2019-06-27T01:19:31.062Z,32.44
2019-06-27T01:20:07.346Z,32.56
2019-06-27T01:20:43.659Z,32.68
2019-06-27T01:21:19.497Z,32.77
2019-06-27T01:21:55.365Z,32.86
2019-06-27T01:22:31.688Z,32.95
2019-06-27T01:23:07.649Z,33.06
2019-06-27T01:23:45.134Z,33.14
2019-06-27T01:24:21.489Z,33.24
2019-06-27T01:24:57.416Z,33.29
2019-06-27T01:25:33.404Z,33.36
2019-06-27T01:26:09.224Z,33.44
2019-06-27T01:26:45.009Z,33.51
2019-06-27T01:27:29.871Z,33.58
2019-06-27T01:27:59.287Z,33.68
2019-06-27T01:28:35.126Z,33.79
2019-06-27T01:29:11.481Z,33.90
2019-06-27T01:29:48.031Z,33.97
2019-06-27T01:30:24.139Z,34.03
2019-06-27T01:31:00.526Z,34.08
2019-06-27T01:31:36.615Z,34.14
2019-06-27T01:32:12.644Z,34.18
2019-06-27T01:32:48.461Z,34.26
2019-06-27T01:33:24.610Z,34.34
2019-06-27T01:34:00.944Z,34.40
2019-06-27T01:34:36.971Z,34.46
2019-06-27T01:35:13.543Z,34.54
2019-06-27T01:35:49.434Z,34.56
2019-06-27T01:36:25.240Z,34.59
2019-06-27T01:37:01.066Z,34.61
2019-06-27T01:37:36.896Z,34.61
2019-06-27T01:38:12.670Z,34.65
2019-06-27T01:38:48.499Z,34.67
2019-06-27T01:39:24.319Z,34.71
2019-06-27T01:40:00.165Z,34.75
2019-06-27T01:40:36.039Z,34.75
2019-06-27T01:41:18.439Z,34.78
2019-06-27T01:41:54.381Z,34.83
2019-06-27T01:42:30.219Z,34.81
2019-06-27T01:43:06.074Z,34.90
2019-06-27T01:43:41.928Z,34.95
2019-06-27T01:44:35.057Z,35.02
2019-06-27T01:45:26.276Z,35.05
2019-06-27T01:46:02.313Z,35.14
2019-06-27T01:46:38.153Z,35.20
2019-06-27T01:47:14.009Z,35.28
2019-06-27T01:47:49.857Z,35.32
2019-06-27T01:48:25.738Z,35.35
2019-06-27T01:49:01.604Z,35.41
2019-06-27T01:49:37.532Z,35.47
2019-06-27T01:50:13.710Z,35.51
2019-06-27T01:50:49.550Z,35.56
2019-06-27T01:51:25.414Z,35.65
2019-06-27T01:52:01.387Z,35.72
2019-06-27T01:52:37.196Z,35.76
2019-06-27T01:53:13.002Z,35.78
2019-06-27T01:53:48.865Z,35.83
2019-06-27T01:54:24.987Z,35.85
2019-06-27T01:55:00.953Z,35.91
2019-06-27T01:55:36.837Z,35.93
2019-06-27T01:56:12.637Z,35.94
2019-06-27T01:56:48.488Z,35.96
2019-06-27T01:57:24.319Z,35.98
2019-06-27T01:58:00.168Z,35.98
2019-06-27T01:58:36.070Z,36.00
2019-06-27T01:59:12.040Z,36.01
2019-06-27T01:59:47.839Z,36.05
2019-06-27T02:00:23.768Z,36.07
2019-06-27T02:01:02.826Z,36.10
2019-06-27T02:01:37.778Z,36.11
2019-06-27T02:02:13.607Z,36.14
2019-06-27T02:02:49.484Z,36.15
2019-06-27T02:03:25.350Z,36.16
2019-06-27T02:04:01.319Z,36.18
2019-06-27T02:04:37.456Z,36.19
2019-06-27T02:05:13.313Z,36.20
2019-06-27T02:05:49.201Z,36.24
2019-06-27T02:06:25.045Z,36.22
2019-06-27T02:07:00.903Z,36.27
2019-06-27T02:07:36.945Z,36.30
2019-06-27T02:08:12.790Z,36.36
2019-06-27T02:08:48.670Z,36.39
2019-06-27T02:09:24.480Z,36.36
2019-06-27T02:10:00.358Z,36.42
2019-06-27T02:10:36.225Z,36.45
2019-06-27T02:11:12.084Z,36.46
2019-06-27T02:11:47.937Z,36.51
2019-06-27T02:12:23.791Z,36.51
2019-06-27T02:12:59.646Z,36.56
2019-06-27T02:13:35.552Z,36.61
2019-06-27T02:14:11.400Z,36.63
2019-06-27T02:14:47.269Z,36.68
2019-06-27T02:15:24.315Z,36.75
2019-06-27T02:16:00.140Z,36.78
2019-06-27T02:16:36.025Z,36.82
2019-06-27T02:17:11.836Z,36.85
2019-06-27T02:17:47.687Z,36.89
2019-06-27T02:18:23.515Z,36.93
2019-06-27T02:18:59.388Z,36.95
2019-06-27T02:19:35.288Z,36.96
2019-06-27T02:20:13.744Z,36.97
2019-06-27T02:20:49.601Z,37.02
2019-06-27T02:21:25.453Z,37.03
2019-06-27T02:22:01.671Z,37.09
2019-06-27T02:22:39.697Z,37.11
2019-06-27T02:23:16.144Z,37.13
2019-06-27T02:23:52.221Z,37.17
2019-06-27T02:24:28.138Z,37.23
2019-06-27T02:25:03.998Z,37.21
2019-06-27T02:25:39.902Z,37.24
2019-06-27T02:26:15.790Z,37.28
2019-06-27T02:26:51.736Z,37.28
2019-06-27T02:27:27.574Z,37.31
2019-06-27T02:28:04.579Z,37.31
2019-06-27T02:28:40.806Z,37.31
2019-06-27T02:29:16.632Z,37.31
2019-06-27T02:29:52.488Z,37.29
2019-06-27T02:30:36.048Z,37.34
2019-06-27T02:31:11.970Z,37.33
2019-06-27T02:31:47.803Z,37.32
2019-06-27T02:32:23.976Z,37.32
2019-06-27T02:32:59.915Z,37.34
2019-06-27T02:33:35.805Z,37.25
2019-06-27T02:34:11.786Z,37.26
2019-06-27T02:34:47.633Z,37.29
2019-06-27T02:35:23.625Z,37.29
2019-06-27T02:35:59.768Z,37.31
2019-06-27T02:36:35.632Z,37.37
2019-06-27T02:37:13.697Z,37.36
2019-06-27T02:37:49.563Z,37.38
2019-06-27T02:38:25.403Z,37.36
2019-06-27T02:39:01.263Z,37.34
2019-06-27T02:39:37.066Z,37.25
2019-06-27T02:40:13.116Z,37.26
2019-06-27T02:40:48.947Z,37.28
2019-06-27T02:41:24.779Z,37.35
2019-06-27T02:42:00.712Z,37.13
2019-06-27T02:42:36.625Z,36.99
2019-06-27T02:43:12.560Z,36.80
2019-06-27T02:43:48.534Z,36.62
2019-06-27T02:44:24.369Z,36.46
2019-06-27T02:45:00.197Z,36.29
2019-06-27T02:45:36.234Z,36.36
2019-06-27T02:46:12.214Z,36.29
2019-06-27T02:46:48.220Z,36.35
2019-06-27T02:47:24.025Z,36.24
2019-06-27T02:48:00.020Z,36.26
2019-06-27T02:48:35.890Z,36.29
2019-06-27T02:49:11.720Z,36.38
2019-06-27T02:49:50.312Z,36.45
2019-06-27T02:50:25.258Z,36.48
2019-06-27T02:51:01.130Z,36.57
2019-06-27T02:51:36.950Z,36.58
2019-06-27T02:52:12.806Z,36.61
2019-06-27T02:52:48.650Z,36.61
2019-06-27T02:53:24.498Z,36.54
2019-06-27T02:54:00.309Z,36.57
2019-06-27T02:54:36.148Z,36.60
2019-06-27T02:55:11.997Z,36.57
2019-06-27T02:55:47.949Z,36.48
2019-06-27T02:56:23.794Z,36.58
2019-06-27T02:56:59.701Z,36.63
2019-06-27T02:57:35.512Z,36.70
2019-06-27T02:58:28.757Z,36.75
2019-06-27T02:58:49.096Z,36.79
2019-06-27T02:59:24.936Z,36.79
2019-06-27T03:00:00.864Z,36.85
2019-06-27T03:00:36.734Z,36.92
2019-06-27T03:01:12.569Z,36.97
2019-06-27T03:01:48.515Z,37.01
2019-06-27T03:02:24.330Z,37.03
2019-06-27T03:03:00.151Z,37.06
2019-06-27T03:03:36.042Z,37.08
2019-06-27T03:04:11.883Z,37.12
2019-06-27T03:04:47.829Z,37.12
2019-06-27T03:05:23.933Z,37.14
2019-06-27T03:05:59.730Z,37.20
2019-06-27T03:06:35.585Z,37.23
2019-06-27T03:07:11.828Z,37.21
2019-06-27T03:07:47.715Z,37.26
2019-06-27T03:08:23.705Z,37.31
2019-06-27T03:08:59.538Z,37.27
2019-06-27T03:09:35.765Z,37.35
2019-06-27T03:10:11.826Z,37.40
2019-06-27T03:10:47.912Z,37.44
2019-06-27T03:11:23.767Z,37.48
2019-06-27T03:12:00.625Z,37.52
2019-06-27T03:12:36.966Z,37.59
2019-06-27T03:13:12.976Z,37.65
2019-06-27T03:13:48.882Z,37.64
2019-06-27T03:14:24.764Z,37.68
2019-06-27T03:15:00.622Z,37.66
2019-06-27T03:15:36.478Z,37.69
2019-06-27T03:16:12.333Z,37.70
2019-06-27T03:16:48.234Z,37.69
2019-06-27T03:17:24.043Z,37.62
2019-06-27T03:17:59.900Z,37.67
2019-06-27T03:18:35.904Z,37.69
2019-06-27T03:19:11.813Z,37.73
2019-06-27T03:19:48.001Z,37.71
2019-06-27T03:20:24.416Z,37.77
2019-06-27T03:21:00.217Z,37.81
2019-06-27T03:21:36.054Z,37.82
2019-06-27T03:22:12.090Z,37.82
2019-06-27T03:22:48.042Z,37.79
2019-06-27T03:23:24.012Z,37.81
2019-06-27T03:23:59.873Z,37.82
2019-06-27T03:24:35.727Z,37.86
2019-06-27T03:25:11.782Z,37.88
2019-06-27T03:25:47.651Z,37.89
2019-06-27T03:26:23.497Z,37.89
2019-06-27T03:26:59.348Z,37.92
2019-06-27T03:27:35.150Z,37.94
2019-06-27T03:28:11.754Z,37.92
2019-06-27T03:28:53.149Z,37.96
2019-06-27T03:29:25.957Z,37.91
2019-06-27T03:30:01.820Z,37.93
2019-06-27T03:30:37.757Z,37.99
2019-06-27T03:31:13.698Z,37.94
2019-06-27T03:31:49.664Z,38.00
2019-06-27T03:32:26.071Z,37.99
2019-06-27T03:33:02.842Z,37.95
2019-06-27T03:33:39.183Z,38.00
2019-06-27T03:34:15.097Z,37.99
2019-06-27T03:34:51.027Z,38.05
2019-06-27T03:35:30.570Z,38.09
2019-06-27T03:36:07.030Z,38.12
2019-06-27T03:36:42.936Z,38.12
2019-06-27T03:37:19.365Z,38.10
2019-06-27T03:37:55.647Z,38.11
2019-06-27T03:38:32.069Z,38.07
2019-06-27T03:39:08.300Z,38.07
2019-06-27T03:39:44.269Z,38.00
2019-06-27T03:40:20.138Z,37.99
2019-06-27T03:40:56.565Z,37.94
2019-06-27T03:41:32.678Z,37.95
2019-06-27T03:42:08.995Z,37.92
2019-06-27T03:42:44.885Z,37.91
2019-06-27T03:43:21.294Z,37.92
2019-06-27T03:43:58.246Z,37.94
2019-06-27T03:44:34.502Z,37.97
2019-06-27T03:45:15.340Z,38.00
2019-06-27T03:45:48.014Z,38.05
2019-06-27T03:46:23.933Z,38.08
2019-06-27T03:47:00.310Z,38.10
2019-06-27T03:47:36.284Z,38.12
2019-06-27T03:48:12.272Z,38.11
2019-06-27T03:48:48.603Z,38.13
2019-06-27T03:49:24.472Z,38.10
2019-06-27T03:50:00.716Z,38.08
2019-06-27T03:50:36.806Z,38.07
2019-06-27T03:51:13.120Z,38.08
2019-06-27T03:51:49.036Z,38.10
2019-06-27T03:52:25.637Z,38.08
2019-06-27T03:53:01.698Z,38.14
2019-06-27T03:53:38.066Z,38.14
2019-06-27T03:54:14.320Z,38.17
2019-06-27T03:54:50.547Z,38.22
2019-06-27T03:55:26.536Z,38.25
2019-06-27T03:56:04.549Z,38.24
2019-06-27T03:56:40.528Z,38.26
2019-06-27T03:57:16.606Z,38.24
2019-06-27T03:57:52.771Z,38.26
2019-06-27T03:58:28.865Z,38.27
2019-06-27T03:59:12.327Z,38.27
2019-06-27T03:59:43.931Z,38.22
2019-06-27T04:00:26.814Z,38.22
2019-06-27T04:01:02.812Z,38.15
2019-06-27T04:01:39.582Z,38.18
2019-06-27T04:02:15.443Z,38.18
2019-06-27T04:02:51.414Z,38.19
2019-06-27T04:03:27.481Z,38.11
2019-06-27T04:04:03.417Z,38.10
2019-06-27T04:04:40.457Z,38.13
2019-06-27T04:05:17.031Z,38.13
2019-06-27T04:05:52.991Z,38.03
2019-06-27T04:06:28.842Z,38.00
2019-06-27T04:07:04.761Z,37.97
2019-06-27T04:07:44.190Z,37.95
2019-06-27T04:08:20.032Z,37.96
2019-06-27T04:08:55.877Z,37.95
2019-06-27T04:09:31.836Z,37.85
2019-06-27T04:10:08.007Z,37.85
2019-06-27T04:10:43.921Z,37.75
2019-06-27T04:11:19.881Z,37.71
2019-06-27T04:11:55.769Z,37.66
2019-06-27T04:12:31.788Z,37.64
2019-06-27T04:13:07.739Z,37.65
2019-06-27T04:13:44.082Z,37.65
2019-06-27T04:14:19.893Z,37.65
2019-06-27T04:15:00.312Z,37.74
2019-06-27T04:15:36.700Z,37.73
2019-06-27T04:16:12.554Z,37.78
2019-06-27T04:16:49.470Z,37.80
2019-06-27T04:17:25.794Z,37.85
2019-06-27T04:18:02.464Z,37.88
2019-06-27T04:18:38.553Z,37.92
2019-06-27T04:19:14.366Z,37.99
2019-06-27T04:19:51.084Z,38.06
2019-06-27T04:20:27.502Z,38.10
2019-06-27T04:21:03.395Z,38.17
2019-06-27T04:21:39.710Z,38.19
2019-06-27T04:22:17.639Z,38.23
2019-06-27T04:22:53.316Z,38.26
2019-06-27T04:23:29.268Z,38.28
2019-06-27T04:24:05.417Z,38.28
2019-06-27T04:24:41.412Z,38.30
2019-06-27T04:25:17.549Z,38.26
2019-06-27T04:25:53.929Z,38.26
2019-06-27T04:26:29.910Z,38.25
2019-06-27T04:27:05.947Z,38.28
2019-06-27T04:27:42.579Z,38.29
2019-06-27T04:28:18.437Z,38.27
2019-06-27T04:28:54.290Z,38.30
2019-06-27T04:29:34.042Z,38.31
2019-06-27T04:30:08.031Z,38.34
2019-06-27T04:30:43.968Z,38.36
2019-06-27T04:31:19.820Z,38.37
2019-06-27T04:31:55.643Z,38.34
2019-06-27T04:32:31.476Z,38.38
2019-06-27T04:33:07.326Z,38.42
2019-06-27T04:33:43.862Z,38.43
2019-06-27T04:34:20.393Z,38.46
2019-06-27T04:34:56.540Z,38.47
2019-06-27T04:35:33.637Z,38.45
2019-06-27T04:36:09.539Z,38.47
2019-06-27T04:36:45.935Z,38.43
2019-06-27T04:37:22.131Z,38.37
2019-06-27T04:37:58.105Z,38.40
2019-06-27T04:38:33.934Z,38.37
2019-06-27T04:39:09.771Z,38.37
2019-06-27T04:39:45.626Z,38.38
2019-06-27T04:40:21.841Z,38.41
2019-06-27T04:40:57.778Z,38.43
2019-06-27T04:41:33.919Z,38.37
2019-06-27T04:42:10.156Z,38.35
2019-06-27T04:42:46.053Z,38.34
2019-06-27T04:43:21.917Z,38.30
2019-06-27T04:43:58.258Z,38.32
2019-06-27T04:44:34.428Z,38.30
2019-06-27T04:45:10.370Z,38.30
2019-06-27T04:45:46.249Z,38.32
2019-06-27T04:46:22.916Z,38.30
2019-06-27T04:46:59.354Z,38.26
2019-06-27T04:47:35.357Z,38.25
2019-06-27T04:48:11.221Z,38.20
2019-06-27T04:48:47.288Z,38.22
2019-06-27T04:49:23.259Z,38.24
2019-06-27T04:49:59.112Z,38.21
2019-06-27T04:50:35.196Z,38.21
2019-06-27T04:51:11.107Z,38.20
2019-06-27T04:51:47.019Z,38.16
2019-06-27T04:52:23.096Z,38.15
2019-06-27T04:52:58.983Z,38.16
2019-06-27T04:53:34.997Z,38.18
2019-06-27T04:54:11.897Z,38.21
2019-06-27T04:54:47.996Z,38.23
2019-06-27T04:55:24.057Z,38.23
2019-06-27T04:55:59.894Z,38.20
2019-06-27T04:56:35.867Z,38.20
2019-06-27T04:57:11.748Z,38.24
2019-06-27T04:57:48.076Z,38.29
2019-06-27T04:58:24.372Z,38.33
2019-06-27T04:59:00.242Z,38.37
2019-06-27T04:59:51.836Z,38.35
2019-06-27T05:00:18.869Z,38.44
2019-06-27T05:00:54.742Z,38.49
2019-06-27T05:01:30.657Z,38.52
2019-06-27T05:02:06.789Z,38.52
2019-06-27T05:02:42.826Z,38.52
2019-06-27T05:03:19.341Z,38.56
2019-06-27T05:03:55.816Z,38.63
2019-06-27T05:04:32.159Z,38.71
2019-06-27T05:05:08.404Z,38.74
2019-06-27T05:05:44.561Z,38.75
2019-06-27T05:06:20.799Z,38.72
2019-06-27T05:06:56.746Z,38.74
2019-06-27T05:07:32.790Z,38.74
2019-06-27T05:08:08.699Z,38.70
2019-06-27T05:08:44.559Z,38.68
2019-06-27T05:09:20.397Z,38.64
2019-06-27T05:09:56.221Z,38.61
2019-06-27T05:10:32.068Z,38.56
2019-06-27T05:11:07.902Z,38.53
2019-06-27T05:11:43.721Z,38.56
2019-06-27T05:12:19.576Z,38.56
2019-06-27T05:12:55.398Z,38.47
2019-06-27T05:13:31.200Z,38.39
2019-06-27T05:14:06.991Z,38.28
2019-06-27T05:14:42.881Z,38.20
2019-06-27T05:15:18.709Z,38.17
2019-06-27T05:15:54.553Z,38.09
2019-06-27T05:16:30.410Z,38.04
2019-06-27T05:17:06.238Z,37.88
2019-06-27T05:17:42.204Z,37.77
2019-06-27T05:18:18.106Z,37.75
2019-06-27T05:18:53.896Z,37.69
2019-06-27T05:19:29.746Z,37.68
2019-06-27T05:20:05.867Z,37.74
2019-06-27T05:20:41.675Z,37.88
2019-06-27T05:21:17.617Z,37.97
2019-06-27T05:21:53.449Z,38.04
2019-06-27T05:22:29.561Z,38.07
2019-06-27T05:23:05.401Z,38.10
2019-06-27T05:23:41.274Z,38.13
2019-06-27T05:24:17.129Z,38.16
2019-06-27T05:24:52.955Z,38.11
2019-06-27T05:25:29.866Z,38.11
2019-06-27T05:26:06.083Z,37.92
2019-06-27T05:26:41.918Z,37.75
2019-06-27T05:27:17.731Z,37.62
2019-06-27T05:27:53.564Z,37.52
2019-06-27T05:28:29.440Z,37.44
2019-06-27T05:29:05.238Z,37.33
2019-06-27T05:29:41.086Z,37.28
2019-06-27T05:30:17.021Z,37.32
2019-06-27T05:30:52.908Z,37.36
2019-06-27T05:31:28.899Z,37.33
2019-06-27T05:32:04.754Z,37.30
2019-06-27T05:32:40.534Z,37.36
2019-06-27T05:33:16.349Z,37.43
2019-06-27T05:33:52.474Z,37.45
2019-06-27T05:34:28.358Z,37.52
2019-06-27T05:35:04.228Z,37.55
2019-06-27T05:35:40.118Z,37.56
2019-06-27T05:36:15.935Z,37.61
2019-06-27T05:36:51.803Z,37.56
2019-06-27T05:37:27.647Z,37.58
2019-06-27T05:38:03.504Z,37.63
2019-06-27T05:38:39.258Z,37.64
2019-06-27T05:39:15.071Z,37.65
2019-06-27T05:39:50.872Z,37.66
2019-06-27T05:40:26.683Z,37.73
2019-06-27T05:41:02.560Z,37.69
2019-06-27T05:41:38.424Z,37.65
2019-06-27T05:42:14.242Z,37.60
2019-06-27T05:42:50.050Z,37.59
2019-06-27T05:43:26.135Z,37.59
2019-06-27T05:44:02.134Z,37.64
2019-06-27T05:44:38.059Z,37.59
2019-06-27T05:45:13.889Z,37.54
2019-06-27T05:45:49.742Z,37.50
2019-06-27T05:46:25.577Z,37.47
2019-06-27T05:47:01.438Z,37.46
2019-06-27T05:47:37.356Z,37.44
2019-06-27T05:48:13.150Z,37.43
2019-06-27T05:48:48.994Z,37.43
2019-06-27T05:49:24.851Z,37.40
2019-06-27T05:50:00.682Z,37.45
2019-06-27T05:50:36.533Z,37.45
2019-06-27T05:51:12.360Z,37.39
2019-06-27T05:51:48.199Z,37.37
2019-06-27T05:52:23.999Z,37.32
2019-06-27T05:52:59.912Z,37.31
2019-06-27T05:53:35.813Z,37.45
2019-06-27T05:54:11.632Z,37.47
2019-06-27T05:54:47.441Z,37.48
2019-06-27T05:55:23.256Z,37.52
2019-06-27T05:55:59.093Z,37.55
2019-06-27T05:56:34.904Z,37.50
2019-06-27T05:57:10.741Z,37.42
2019-06-27T05:57:46.627Z,37.37
2019-06-27T05:58:22.688Z,37.35
2019-06-27T05:58:58.614Z,37.28
2019-06-27T05:59:34.494Z,37.29
2019-06-27T06:00:26.882Z,37.35
2019-06-27T06:00:48.254Z,37.46
2019-06-27T06:01:24.090Z,37.42
2019-06-27T06:02:00.220Z,37.36
2019-06-27T06:02:36.281Z,37.31
2019-06-27T06:03:12.145Z,37.26
2019-06-27T06:03:48.031Z,37.23
2019-06-27T06:04:24.219Z,37.18
2019-06-27T06:05:00.167Z,37.15
2019-06-27T06:05:35.961Z,37.10
2019-06-27T06:06:11.972Z,37.06
2019-06-27T06:06:48.316Z,37.03
2019-06-27T06:07:24.221Z,37.03
2019-06-27T06:08:00.122Z,37.14
2019-06-27T06:08:36.016Z,37.23
2019-06-27T06:09:11.957Z,37.32
2019-06-27T06:09:47.805Z,37.42
2019-06-27T06:10:23.629Z,37.51
2019-06-27T06:10:59.457Z,37.59
2019-06-27T06:11:35.285Z,37.58
2019-06-27T06:12:11.184Z,37.63
2019-06-27T06:12:46.983Z,37.73
2019-06-27T06:13:22.879Z,37.82
2019-06-27T06:13:58.885Z,37.88
2019-06-27T06:14:34.801Z,37.93
2019-06-27T06:15:10.693Z,37.92
2019-06-27T06:15:46.767Z,37.99
2019-06-27T06:16:22.608Z,38.05
2019-06-27T06:16:58.455Z,38.07
2019-06-27T06:17:34.395Z,38.07
2019-06-27T06:18:10.192Z,37.99
2019-06-27T06:18:46.050Z,38.01
2019-06-27T06:19:21.868Z,38.07
2019-06-27T06:19:57.784Z,38.13
2019-06-27T06:20:33.575Z,38.19
2019-06-27T06:21:09.441Z,38.20
2019-06-27T06:21:45.354Z,38.25
2019-06-27T06:22:21.249Z,38.29
2019-06-27T06:22:57.198Z,38.34
2019-06-27T06:23:33.129Z,38.38
2019-06-27T06:24:08.968Z,38.38
2019-06-27T06:24:44.947Z,38.39
2019-06-27T06:25:20.741Z,38.42
2019-06-27T06:25:56.625Z,38.45
2019-06-27T06:26:32.480Z,38.45
2019-06-27T06:27:08.410Z,38.47
2019-06-27T06:27:44.245Z,38.44
2019-06-27T06:28:20.200Z,38.43
2019-06-27T06:28:56.018Z,38.43
2019-06-27T06:29:31.860Z,38.42
2019-06-27T06:30:08.479Z,38.43
2019-06-27T06:30:45.359Z,38.42
2019-06-27T06:31:21.358Z,38.46
2019-06-27T06:31:57.193Z,38.46
2019-06-27T06:32:32.967Z,38.44
2019-06-27T06:33:08.790Z,38.38
2019-06-27T06:33:44.665Z,38.33
2019-06-27T06:34:20.845Z,38.28
2019-06-27T06:34:56.639Z,38.22
2019-06-27T06:35:32.491Z,38.20
2019-06-27T06:36:08.323Z,38.16
2019-06-27T06:36:44.214Z,38.11
2019-06-27T06:37:20.176Z,38.12
2019-06-27T06:37:56.006Z,38.11
2019-06-27T06:38:31.846Z,38.11
2019-06-27T06:39:07.670Z,38.06
2019-06-27T06:39:43.636Z,38.06
2019-06-27T06:40:19.676Z,38.09
2019-06-27T06:40:55.513Z,38.07
2019-06-27T06:41:31.446Z,38.10
2019-06-27T06:42:07.241Z,38.10
2019-06-27T06:42:43.203Z,38.09
2019-06-27T06:43:19.049Z,38.08
2019-06-27T06:43:54.911Z,38.11
2019-06-27T06:44:30.766Z,38.13
2019-06-27T06:45:06.752Z,38.17
2019-06-27T06:45:42.577Z,38.20
2019-06-27T06:46:18.816Z,38.16
2019-06-27T06:46:54.646Z,38.22
2019-06-27T06:47:30.453Z,38.23
2019-06-27T06:48:06.261Z,38.25
2019-06-27T06:48:42.280Z,38.25
2019-06-27T06:49:18.110Z,38.22
2019-06-27T06:49:53.963Z,38.17
2019-06-27T06:50:29.798Z,38.12
2019-06-27T06:51:05.707Z,38.09
2019-06-27T06:51:41.505Z,38.05
2019-06-27T06:52:17.343Z,38.06
2019-06-27T06:52:53.259Z,38.03
2019-06-27T06:53:29.189Z,38.01
2019-06-27T06:54:05.110Z,37.95
2019-06-27T06:54:41.024Z,37.91
2019-06-27T06:55:16.906Z,37.87
2019-06-27T06:55:53.017Z,37.83
2019-06-27T06:56:28.961Z,37.78
2019-06-27T06:57:04.814Z,37.75
2019-06-27T06:57:40.683Z,37.73
2019-06-27T06:58:16.492Z,37.70
2019-06-27T06:58:52.321Z,37.61
2019-06-27T06:59:28.143Z,37.53
2019-06-27T07:00:04.013Z,37.47
2019-06-27T07:00:39.923Z,37.44
2019-06-27T07:01:15.803Z,37.46
2019-06-27T07:01:51.691Z,37.42
2019-06-27T07:02:27.679Z,37.37
2019-06-27T07:03:03.528Z,37.36
2019-06-27T07:03:39.408Z,37.30
2019-06-27T07:04:15.193Z,37.26
2019-06-27T07:04:51.017Z,37.23
2019-06-27T07:05:29.128Z,37.16
2019-06-27T07:06:04.835Z,37.11
2019-06-27T07:06:40.758Z,37.06
2019-06-27T07:07:16.594Z,37.00
2019-06-27T07:07:52.388Z,36.94
2019-06-27T07:08:28.231Z,36.87
2019-06-27T07:09:04.339Z,36.82
2019-06-27T07:09:41.336Z,36.78
2019-06-27T07:10:18.515Z,36.72
2019-06-27T07:10:54.828Z,36.66
2019-06-27T07:11:30.684Z,36.60
2019-06-27T07:12:06.543Z,36.56
2019-06-27T07:12:42.429Z,36.53
2019-06-27T07:13:18.279Z,36.45
2019-06-27T07:13:57.043Z,36.38
2019-06-27T07:14:32.856Z,36.31
2019-06-27T07:15:08.935Z,36.24
2019-06-27T07:15:44.835Z,36.20
2019-06-27T07:16:20.690Z,36.14
2019-06-27T07:16:56.628Z,36.12
2019-06-27T07:17:32.605Z,36.10
2019-06-27T07:18:08.447Z,36.08
2019-06-27T07:18:44.429Z,36.05
2019-06-27T07:19:20.282Z,36.04
2019-06-27T07:19:57.563Z,36.02
2019-06-27T07:20:33.734Z,35.98
2019-06-27T07:21:09.677Z,35.97
2019-06-27T07:21:45.549Z,35.95
2019-06-27T07:22:21.444Z,35.95
2019-06-27T07:22:57.415Z,35.94
2019-06-27T07:23:33.288Z,35.93
2019-06-27T07:24:09.200Z,35.91
2019-06-27T07:24:45.048Z,35.92
2019-06-27T07:25:20.947Z,35.90
2019-06-27T07:25:56.821Z,35.87
2019-06-27T07:26:32.629Z,35.88
2019-06-27T07:27:08.508Z,35.83
2019-06-27T07:27:44.347Z,35.80
2019-06-27T07:28:20.410Z,35.72
2019-06-27T07:28:56.325Z,35.69
2019-06-27T07:29:32.187Z,35.69
2019-06-27T07:30:08.305Z,35.69
2019-06-27T07:30:44.171Z,35.68
2019-06-27T07:31:19.957Z,35.68
2019-06-27T07:31:55.983Z,35.68
2019-06-27T07:32:31.871Z,35.68
2019-06-27T07:33:10.193Z,35.65
2019-06-27T07:33:45.610Z,35.66
2019-06-27T07:34:21.586Z,35.63
2019-06-27T07:34:58.349Z,35.62
2019-06-27T07:35:34.199Z,35.60
2019-06-27T07:36:10.051Z,35.56
2019-06-27T07:36:45.904Z,35.56
2019-06-27T07:37:21.719Z,35.53
2019-06-27T07:37:57.697Z,35.49
2019-06-27T07:38:33.514Z,35.51
2019-06-27T07:39:09.371Z,35.49
2019-06-27T07:39:45.258Z,35.47
2019-06-27T07:40:21.207Z,35.47
2019-06-27T07:40:57.016Z,35.46
2019-06-27T07:41:32.858Z,35.46
2019-06-27T07:42:08.690Z,35.41
2019-06-27T07:42:44.616Z,35.41
2019-06-27T07:43:20.491Z,35.42
2019-06-27T07:43:56.460Z,35.44
2019-06-27T07:44:32.267Z,35.44
2019-06-27T07:45:08.382Z,35.45
2019-06-27T07:45:44.201Z,35.46